createdAt,value
2024-05-09T04:02:34.274Z,9.46
2024-05-09T04:05:02.219Z,9.44
2024-05-09T04:07:28.947Z,9.40
2024-05-09T04:09:55.647Z,9.33
2024-05-09T04:12:22.427Z,9.37
2024-05-09T04:14:49.101Z,9.34
2024-05-09T04:17:15.963Z,9.31
2024-05-09T04:19:42.708Z,9.36
2024-05-09T04:22:11.367Z,9.36
2024-05-09T04:24:38.083Z,9.41
2024-05-09T04:27:05.453Z,9.30
2024-05-09T04:29:32.436Z,9.31
2024-05-09T04:31:59.240Z,9.27
2024-05-09T04:34:26.009Z,9.24
2024-05-09T04:36:52.763Z,9.29
2024-05-09T04:39:19.405Z,9.26
2024-05-09T04:41:46.112Z,9.26
2024-05-09T04:44:12.931Z,9.20
2024-05-09T04:46:40.072Z,9.27
2024-05-09T04:49:06.847Z,9.29
2024-05-09T04:51:35.540Z,9.30
2024-05-09T04:54:02.256Z,9.36
2024-05-09T04:56:29.059Z,9.43
2024-05-09T04:58:55.738Z,9.41
2024-05-09T05:01:22.803Z,9.46
2024-05-09T05:03:49.800Z,9.48
2024-05-09T05:06:16.596Z,9.51
2024-05-09T05:08:43.304Z,9.52
2024-05-09T05:11:12.206Z,9.58
2024-05-09T05:13:41.536Z,9.65
2024-05-09T05:16:08.427Z,9.68
2024-05-09T05:18:35.111Z,9.78
2024-05-09T05:21:02.014Z,9.87
2024-05-09T05:23:28.849Z,9.92
2024-05-09T05:25:55.898Z,10.02
2024-05-09T05:28:23.105Z,10.22
2024-05-09T05:30:50.193Z,10.26
2024-05-09T05:33:20.293Z,10.26
2024-05-09T05:35:47.574Z,10.26
2024-05-09T05:38:14.593Z,10.25
2024-05-09T05:40:41.405Z,10.22
2024-05-09T05:43:10.686Z,10.42
2024-05-09T05:45:40.800Z,10.52
2024-05-09T05:48:08.147Z,10.61
2024-05-09T05:50:37.542Z,10.60
2024-05-09T05:53:09.966Z,10.68
2024-05-09T05:55:39.336Z,10.81
2024-05-09T05:58:09.276Z,10.91
2024-05-09T06:00:39.111Z,11.22
2024-05-09T06:03:08.868Z,11.43
2024-05-09T06:05:38.799Z,11.53
2024-05-09T06:08:07.940Z,11.52
2024-05-09T06:10:38.763Z,11.70
2024-05-09T06:13:11.233Z,11.79
2024-05-09T06:15:38.788Z,11.86
2024-05-09T06:18:07.430Z,12.04
2024-05-09T06:20:37.137Z,12.07
2024-05-09T06:23:09.638Z,12.08
2024-05-09T06:25:37.146Z,12.46
2024-05-09T06:28:04.447Z,12.68
2024-05-09T06:30:38.791Z,13.04
2024-05-09T06:33:10.110Z,13.31
2024-05-09T06:35:38.227Z,13.62
2024-05-09T06:38:05.179Z,13.43
2024-05-09T06:40:37.997Z,13.50
2024-05-09T06:43:18.501Z,13.89
2024-05-09T06:45:48.233Z,13.88
2024-05-09T06:48:17.623Z,14.48
2024-05-09T06:50:44.740Z,14.64
2024-05-09T06:53:14.267Z,14.84
2024-05-09T06:55:41.062Z,15.09
2024-05-09T06:58:11.867Z,15.60
2024-05-09T07:00:41.138Z,15.66
2024-05-09T07:03:11.402Z,16.00
2024-05-09T07:05:39.159Z,15.84
2024-05-09T07:08:06.936Z,16.09
2024-05-09T07:10:36.183Z,16.75
2024-05-09T07:13:08.056Z,17.41
2024-05-09T07:15:34.802Z,17.86
2024-05-09T07:18:01.725Z,17.96
2024-05-09T07:20:34.419Z,17.94
2024-05-09T07:23:05.183Z,17.82
2024-05-09T07:25:32.018Z,17.30
2024-05-09T07:27:58.744Z,17.23
2024-05-09T07:30:32.835Z,17.79
2024-05-09T07:33:08.440Z,17.92
2024-05-09T07:35:37.153Z,18.20
2024-05-09T07:38:04.237Z,18.89
2024-05-09T07:40:37.173Z,18.87
2024-05-09T07:43:24.676Z,18.26
2024-05-09T07:45:54.348Z,19.63
2024-05-09T07:52:37.714Z,20.57
2024-05-09T07:53:46.070Z,20.40
2024-05-09T07:56:16.673Z,21.15
2024-05-09T07:58:43.866Z,21.30
2024-05-09T08:01:10.796Z,21.76
2024-05-09T08:03:38.290Z,20.93
2024-05-09T08:06:05.329Z,21.61
2024-05-09T08:08:32.173Z,22.27
2024-05-09T08:10:58.914Z,21.70
2024-05-09T08:13:25.563Z,22.86
2024-05-09T08:15:52.715Z,22.68
2024-05-09T08:18:19.718Z,23.36
2024-05-09T08:20:48.479Z,23.31
2024-05-09T08:23:15.341Z,22.34
2024-05-09T08:25:42.015Z,22.43
2024-05-09T08:28:08.792Z,23.10
2024-05-09T08:30:37.561Z,22.59
2024-05-09T08:33:06.540Z,22.43
2024-05-09T08:35:34.417Z,22.99
2024-05-09T08:38:05.624Z,23.78
2024-05-09T08:40:35.937Z,23.64
2024-05-09T08:43:12.178Z,24.00
2024-05-09T08:45:43.772Z,24.52
2024-05-09T08:48:20.972Z,23.70
2024-05-09T08:50:49.946Z,24.32
2024-05-09T08:53:16.844Z,23.71
2024-05-09T08:55:45.902Z,23.81
2024-05-09T08:58:18.030Z,24.94
2024-05-09T09:00:46.449Z,25.08
2024-05-09T09:03:19.623Z,25.24
2024-05-09T09:06:01.346Z,24.80
2024-05-09T09:08:28.120Z,25.41
2024-05-09T09:11:00.234Z,25.63
2024-05-09T09:13:27.853Z,23.97
2024-05-09T09:15:58.418Z,24.22
2024-05-09T09:18:26.620Z,24.86
2024-05-09T09:20:53.848Z,23.24
2024-05-09T09:23:20.653Z,24.11
2024-05-09T09:25:47.600Z,24.43
2024-05-09T09:28:14.622Z,24.66
2024-05-09T09:30:42.567Z,24.39
2024-05-09T09:33:10.322Z,24.39
2024-05-09T09:35:39.837Z,24.30
2024-05-09T09:38:07.672Z,23.64
2024-05-09T09:40:40.914Z,24.37
2024-05-09T09:43:20.222Z,24.86
2024-05-09T09:45:50.661Z,24.23
2024-05-09T09:48:17.629Z,25.19
2024-05-09T09:50:45.791Z,26.04
2024-05-09T09:53:14.099Z,24.88
2024-05-09T09:55:42.004Z,24.53
2024-05-09T09:58:13.416Z,25.56
2024-05-09T10:00:41.365Z,25.46
2024-05-09T10:03:08.460Z,24.44
2024-05-09T10:05:35.829Z,23.50
2024-05-09T10:08:08.182Z,23.58
2024-05-09T10:10:35.950Z,24.29
2024-05-09T10:13:07.747Z,25.15
2024-05-09T10:15:51.092Z,24.57
2024-05-09T10:18:22.802Z,24.57
2024-05-09T10:20:51.811Z,25.11
2024-05-09T10:23:29.859Z,25.53
2024-05-09T10:26:01.447Z,24.74
2024-05-09T10:28:36.813Z,24.76
2024-05-09T10:31:14.902Z,24.64
2024-05-09T10:33:51.443Z,24.73
2024-05-09T10:36:23.339Z,24.55
2024-05-09T10:38:50.859Z,24.98
2024-05-09T10:41:18.428Z,24.97
2024-05-09T10:43:45.223Z,24.49
2024-05-09T10:46:12.430Z,24.30
2024-05-09T10:48:41.673Z,24.04
2024-05-09T10:51:09.290Z,24.21
2024-05-09T10:53:42.886Z,24.19
2024-05-09T10:56:10.180Z,24.53
2024-05-09T10:58:37.558Z,24.46
2024-05-09T11:01:07.044Z,24.55
2024-05-09T11:03:35.737Z,24.25
2024-05-09T11:06:03.045Z,23.20
2024-05-09T11:08:31.853Z,22.86
2024-05-09T11:10:59.792Z,22.38
2024-05-09T11:13:27.960Z,22.40
2024-05-09T11:15:55.014Z,21.88
2024-05-09T11:18:27.920Z,21.88
2024-05-09T11:20:57.184Z,21.69
2024-05-09T11:23:30.269Z,21.99
2024-05-09T11:25:58.604Z,22.52
2024-05-09T11:28:28.389Z,23.13
2024-05-09T11:31:06.482Z,23.37
2024-05-09T11:33:41.641Z,23.16
2024-05-09T11:36:09.583Z,23.20
2024-05-09T11:38:36.719Z,23.60
2024-05-09T11:41:04.701Z,23.53
2024-05-09T11:43:31.665Z,23.67
2024-05-09T11:45:58.905Z,23.26
2024-05-09T11:48:26.697Z,23.10
2024-05-09T11:50:55.085Z,22.75
2024-05-09T11:53:21.891Z,22.99
2024-05-09T11:55:48.731Z,23.12
2024-05-09T11:58:17.883Z,23.15
2024-05-09T12:00:45.695Z,23.79
2024-05-09T12:03:15.862Z,24.22
2024-05-09T12:05:42.762Z,23.57
2024-05-09T12:08:09.971Z,23.03
2024-05-09T12:10:37.452Z,23.22
2024-05-09T12:13:06.294Z,22.96
2024-05-09T12:15:37.752Z,23.13
2024-05-09T12:18:06.058Z,22.79
2024-05-09T12:20:37.542Z,22.49
2024-05-09T12:23:06.877Z,22.61
2024-05-09T12:25:34.834Z,23.23
2024-05-09T12:28:01.928Z,23.13
2024-05-09T12:30:36.220Z,23.49
2024-05-09T12:33:11.286Z,22.75
2024-05-09T12:35:39.089Z,22.84
2024-05-09T12:38:05.812Z,22.10
2024-05-09T12:40:36.818Z,22.57
2024-05-09T12:43:07.913Z,22.95
2024-05-09T12:45:35.609Z,23.42
2024-05-09T12:48:02.754Z,23.44
2024-05-09T12:50:34.181Z,23.15
2024-05-09T12:55:52.924Z,22.52
2024-05-09T12:58:24.201Z,22.79
2024-05-09T13:00:52.834Z,22.99
2024-05-09T13:03:20.487Z,22.99
2024-05-09T13:05:47.585Z,23.58
2024-05-09T13:08:14.432Z,23.43
2024-05-09T13:10:41.597Z,22.82
2024-05-09T13:13:12.518Z,22.54
2024-05-09T13:15:39.614Z,22.24
2024-05-09T13:18:07.024Z,22.21
2024-05-09T13:20:35.700Z,21.94
2024-05-09T13:23:08.064Z,21.45
2024-05-09T13:25:36.381Z,21.37
2024-05-09T13:28:04.353Z,21.42
2024-05-09T13:30:39.655Z,21.32
2024-05-09T13:33:13.836Z,21.39
2024-05-09T13:35:47.169Z,21.42
2024-05-09T13:38:18.476Z,21.10
2024-05-09T13:40:45.703Z,21.08
2024-05-09T13:43:12.607Z,21.07
2024-05-09T13:45:39.764Z,21.14
2024-05-09T13:48:07.200Z,20.91
2024-05-09T13:50:36.656Z,20.94
2024-05-09T13:53:08.314Z,20.88
2024-05-09T13:55:38.189Z,20.67
2024-05-09T13:58:05.420Z,20.88
2024-05-09T14:00:42.861Z,20.91
2024-05-09T14:03:15.508Z,21.17
2024-05-09T14:05:43.304Z,21.18
2024-05-09T14:08:10.742Z,21.20
2024-05-09T14:10:44.263Z,21.46
2024-05-09T14:13:11.805Z,21.67
2024-05-09T14:15:38.590Z,21.53
2024-05-09T14:18:07.035Z,21.82
2024-05-09T14:20:34.726Z,21.76
2024-05-09T14:23:01.407Z,21.58
2024-05-09T14:25:29.477Z,21.67
2024-05-09T14:27:57.930Z,21.92
2024-05-09T14:30:31.227Z,21.85
2024-05-09T14:33:06.061Z,22.20
2024-05-09T14:35:33.717Z,21.59
2024-05-09T14:38:00.545Z,21.42
2024-05-09T14:40:37.168Z,21.28
2024-05-09T14:43:09.870Z,21.35
2024-05-09T14:45:36.829Z,21.18
2024-05-09T14:48:04.170Z,21.15
2024-05-09T14:50:36.314Z,21.32
2024-05-09T14:53:15.086Z,21.08
2024-05-09T14:55:43.139Z,21.48
2024-05-09T14:58:11.328Z,21.41
2024-05-09T15:00:46.080Z,21.86
2024-05-09T15:03:16.951Z,21.66
2024-05-09T15:05:45.076Z,22.00
2024-05-09T15:08:11.819Z,21.90
2024-05-09T15:10:39.222Z,21.39
2024-05-09T15:13:08.082Z,21.51
2024-05-09T15:15:36.820Z,21.45
2024-05-09T15:18:04.758Z,21.28
2024-05-09T15:20:35.733Z,21.12
2024-05-09T15:23:05.075Z,21.17
2024-05-09T15:25:33.417Z,21.66
2024-05-09T15:28:00.328Z,21.72
2024-05-09T15:30:31.439Z,21.41
2024-05-09T15:33:01.649Z,21.61
2024-05-09T15:35:28.534Z,21.78
2024-05-09T15:37:55.856Z,21.46
2024-05-09T15:40:31.657Z,21.21
2024-05-09T15:43:06.187Z,21.05
2024-05-09T15:45:33.873Z,21.21
2024-05-09T15:48:02.608Z,21.32
2024-05-09T15:50:36.946Z,21.10
2024-05-09T15:53:08.090Z,21.18
2024-05-09T15:55:35.865Z,21.21
2024-05-09T15:58:03.922Z,21.11
2024-05-09T16:00:38.708Z,20.76
2024-05-09T16:03:09.972Z,20.88
2024-05-09T16:05:37.879Z,20.84
2024-05-09T16:08:05.713Z,20.52
2024-05-09T16:10:34.193Z,20.85
2024-05-09T16:13:02.525Z,20.72
2024-05-09T16:15:29.935Z,20.76
2024-05-09T16:17:57.036Z,20.26
2024-05-09T16:22:54.501Z,20.30
2024-05-09T16:25:21.394Z,20.14
2024-05-09T16:27:48.301Z,20.37
2024-05-09T16:30:24.812Z,20.06
2024-05-09T16:32:58.562Z,19.95
2024-05-09T16:35:25.415Z,19.98
2024-05-09T16:37:52.121Z,19.74
2024-05-09T16:40:25.766Z,19.98
2024-05-09T16:43:03.542Z,19.82
2024-05-09T16:45:30.943Z,19.87
2024-05-09T16:47:59.075Z,19.99
2024-05-09T16:50:31.109Z,19.97
2024-05-09T16:53:00.218Z,19.81
2024-05-09T16:55:27.245Z,19.75
2024-05-09T16:57:55.680Z,19.78
2024-05-09T17:00:31.713Z,19.77
2024-05-09T17:03:07.196Z,19.81
2024-05-09T17:05:34.655Z,19.68
2024-05-09T17:08:01.726Z,19.58
2024-05-09T17:10:32.990Z,19.79
2024-05-09T17:13:05.513Z,19.84
2024-05-09T17:15:33.863Z,19.88
2024-05-09T17:18:01.723Z,19.78
2024-05-09T17:20:33.461Z,19.74
2024-05-09T17:23:04.169Z,19.67
2024-05-09T17:25:31.114Z,19.68
2024-05-09T17:28:05.319Z,19.63
2024-05-09T17:30:36.409Z,19.64
2024-05-09T17:33:07.102Z,19.64
2024-05-09T17:35:35.258Z,19.49
2024-05-09T17:38:02.071Z,19.33
2024-05-09T17:40:33.643Z,19.31
2024-05-09T17:43:04.196Z,19.29
2024-05-09T17:45:31.929Z,19.13
2024-05-09T17:47:59.083Z,19.40
2024-05-09T17:50:31.796Z,19.12
2024-05-09T17:53:02.950Z,18.99
2024-05-09T17:55:29.946Z,19.06
2024-05-09T17:57:57.070Z,18.91
2024-05-09T18:00:36.045Z,18.68
2024-05-09T18:03:06.777Z,18.81
2024-05-09T18:05:36.741Z,18.81
2024-05-09T18:08:04.335Z,18.71
2024-05-09T18:10:36.663Z,18.67
2024-05-09T18:13:07.221Z,18.58
2024-05-09T18:15:34.500Z,18.61
2024-05-09T18:18:02.663Z,18.47
2024-05-09T18:20:38.081Z,18.34
2024-05-09T18:23:11.074Z,18.27
2024-05-09T18:25:38.047Z,18.26
2024-05-09T18:28:05.692Z,18.18
2024-05-09T18:30:35.464Z,18.23
2024-05-09T18:33:05.976Z,18.00
2024-05-09T18:35:33.989Z,17.99
2024-05-09T18:38:00.766Z,17.94
2024-05-09T18:40:33.141Z,17.93
2024-05-09T18:43:03.600Z,17.89
2024-05-09T18:45:30.805Z,17.85
2024-05-09T18:47:58.257Z,17.81
2024-05-09T18:50:33.981Z,17.72
2024-05-09T18:53:08.413Z,17.68
2024-05-09T18:55:35.430Z,17.64
2024-05-09T18:58:03.180Z,17.61
2024-05-09T19:00:35.727Z,17.62
2024-05-09T19:03:09.444Z,17.65
2024-05-09T19:05:38.783Z,17.65
2024-05-09T19:08:07.309Z,17.58
2024-05-09T19:10:38.311Z,17.54
2024-05-09T19:13:09.317Z,17.58
2024-05-09T19:15:39.707Z,17.52
2024-05-09T19:18:07.478Z,17.55
2024-05-09T19:20:36.091Z,17.61
2024-05-09T19:23:04.261Z,17.49
2024-05-09T19:25:31.304Z,17.41
2024-05-09T19:28:01.424Z,17.24
2024-05-09T19:30:37.354Z,17.27
2024-05-09T19:33:08.912Z,17.28
2024-05-09T19:35:36.081Z,17.25
2024-05-09T19:38:02.918Z,17.23
2024-05-09T19:40:32.358Z,17.20
2024-05-09T19:43:02.658Z,17.23
2024-05-09T19:45:30.201Z,17.27
2024-05-09T19:47:57.348Z,17.28
2024-05-09T19:50:32.380Z,17.31
2024-05-09T19:53:07.169Z,17.25
2024-05-09T19:55:34.600Z,17.11
2024-05-09T19:58:07.108Z,17.08
2024-05-09T20:00:36.918Z,17.07
2024-05-09T20:03:06.423Z,16.96
2024-05-09T20:05:33.922Z,16.91
2024-05-09T20:08:00.851Z,16.76
2024-05-09T20:10:32.181Z,16.66
2024-05-09T20:13:01.170Z,16.67
2024-05-09T20:15:28.031Z,16.53
2024-05-09T20:17:55.360Z,16.48
2024-05-09T20:22:52.052Z,16.22
2024-05-09T20:25:18.936Z,16.17
2024-05-09T20:27:45.891Z,16.11
2024-05-09T20:30:17.230Z,16.17
2024-05-09T20:32:51.598Z,16.02
2024-05-09T20:35:18.424Z,15.93
2024-05-09T20:37:45.198Z,15.84
2024-05-09T20:40:18.509Z,15.86
2024-05-09T20:42:52.110Z,15.80
2024-05-09T20:45:18.954Z,15.80
2024-05-09T20:47:45.747Z,15.76
2024-05-09T20:50:23.053Z,15.70
2024-05-09T20:52:55.314Z,15.49
2024-05-09T20:55:22.256Z,15.42
2024-05-09T20:57:49.088Z,15.35
2024-05-09T21:00:19.179Z,15.28
2024-05-09T21:02:52.179Z,15.22
2024-05-09T21:05:19.523Z,15.08
2024-05-09T21:07:46.335Z,14.98
2024-05-09T21:10:19.355Z,14.91
2024-05-09T21:12:49.539Z,14.85
2024-05-09T21:15:16.433Z,14.80
2024-05-09T21:17:43.350Z,14.78
2024-05-09T21:20:17.027Z,14.80
2024-05-09T21:22:47.161Z,14.80
2024-05-09T21:25:14.416Z,14.71
2024-05-09T21:27:41.181Z,14.67
2024-05-09T21:30:13.249Z,14.48
2024-05-09T21:32:45.987Z,14.51
2024-05-09T21:35:12.980Z,14.53
2024-05-09T21:37:39.661Z,14.48
2024-05-09T21:40:11.435Z,14.44
2024-05-09T21:42:40.906Z,14.44
2024-05-09T21:45:07.998Z,14.33
2024-05-09T21:47:35.670Z,14.40
2024-05-09T21:50:02.956Z,14.33
2024-05-09T21:52:29.686Z,14.33
2024-05-09T21:54:59.119Z,14.34
2024-05-09T21:57:25.765Z,14.40
2024-05-09T21:59:52.606Z,14.34
2024-05-09T22:03:28.487Z,14.30
2024-05-09T22:05:55.307Z,14.34
2024-05-09T22:08:22.226Z,14.36
2024-05-09T22:10:49.214Z,14.40
2024-05-09T22:13:18.751Z,14.37
2024-05-09T22:15:45.832Z,14.38
2024-05-09T22:18:12.661Z,14.32
2024-05-09T22:20:45.548Z,14.37
2024-05-09T22:23:13.975Z,14.32
2024-05-09T22:25:40.743Z,14.48
2024-05-09T22:28:07.569Z,14.46
2024-05-09T22:30:38.146Z,14.33
2024-05-09T22:33:09.561Z,14.44
2024-05-09T22:35:37.852Z,14.46
2024-05-09T22:38:04.689Z,14.46
2024-05-09T22:40:42.195Z,14.51
2024-05-09T22:43:17.335Z,14.40
2024-05-09T22:45:44.817Z,14.43
2024-05-09T22:48:11.791Z,14.46
2024-05-09T22:50:38.569Z,14.53
2024-05-09T22:53:05.742Z,14.47
2024-05-09T22:55:32.465Z,14.48
2024-05-09T22:57:59.321Z,14.47
2024-05-09T23:00:31.227Z,14.46
2024-05-09T23:03:03.078Z,14.50
2024-05-09T23:05:30.991Z,14.43
2024-05-09T23:07:58.063Z,14.36
2024-05-09T23:10:31.744Z,14.34
2024-05-09T23:13:04.323Z,14.32
2024-05-09T23:15:31.347Z,14.27
2024-05-09T23:17:58.682Z,14.27
2024-05-09T23:20:35.815Z,14.26
2024-05-09T23:23:06.828Z,14.17
2024-05-09T23:25:33.826Z,14.15
2024-05-09T23:28:00.875Z,14.08
2024-05-09T23:30:36.244Z,14.13
2024-05-09T23:33:06.495Z,14.16
2024-05-09T23:35:33.383Z,14.16
2024-05-09T23:38:00.109Z,14.19
2024-05-09T23:40:36.193Z,14.25
2024-05-09T23:43:09.209Z,14.16
2024-05-09T23:45:36.468Z,14.09
2024-05-09T23:48:03.809Z,14.01
2024-05-09T23:50:35.066Z,13.88
2024-05-09T23:53:09.516Z,13.81
2024-05-09T23:55:37.476Z,13.71
2024-05-09T23:58:04.641Z,13.69
